Currently 80°F in Murrieta, California, USA
80°F
80°F / 53°F
4 mph SE
0.00"
Saturday, May 2, 2026 12:35 PM PDT

Murrieta, California Weather Summary
Last 36 Hours

Temperature Winds Hourly Humidity Dewpoint
Time Report Norm Report Norm Max Gusts Precip. Rpt. Norm Rpt. Norm Pressure
1Sat 12:35 PM  79.9°F  75°F  4 mph SE  5 mph  5 mph  0.00"  45%  45%  56°F  51°F  29.92"
2Sat 12:32 PM  80.0°F  75°F  3 mph S  5 mph  6 mph  ----  46%  46%  57°F  52°F  29.92"
Sat 12:00 PM  76.3°F  74°F  1 mph SE  4 mph  9 mph  0.00"  53%  47%  57°F  51°F  29.93"
Sat 11:00 AM  71.5°F  71°F  4 mph E  4 mph  9 mph  0.00"  65%  52%  59°F  52°F  29.96"
Sat 10:00 AM  66.7°F  67°F  4 mph S  3 mph  7 mph  0.00"  71%  61%  57°F  52°F  29.98"
Sat 09:00 AM  60.3°F  62°F  1 mph W  2 mph  7 mph  0.00"  85%  71%  56°F  52°F  30.00"
Sat 08:00 AM  58.3°F  58°F  2 mph NW  2 mph  5 mph  0.00"  91%  80%  55°F  51°F  30.00"
Sat 07:00 AM  56.6°F  54°F  3 mph SW  1 mph  10 mph  0.00"  94%  85%  55°F  49°F  29.99"
Sat 06:00 AM  54.9°F  53°F  7 mph SW  1 mph  11 mph  0.00"  95%  86%  53°F  48°F  29.97"
Sat 05:00 AM  54.9°F  53°F  5 mph S  1 mph  15 mph  0.00"  95%  85%  54°F  48°F  29.95"
3Sat 04:04 AM  53.4°F  53°F  calm  1 mph  3 mph  ----  93%  84%  51°F  49°F  29.94"
Sat 04:00 AM  53.5°F  53°F  calm  1 mph  5 mph  0.00"  93%  84%  51°F  49°F  29.93"
Sat 03:00 AM  54.0°F  54°F  calm  1 mph  none  0.00"  93%  83%  52°F  49°F  29.93"
Sat 02:00 AM  55.0°F  55°F  calm  1 mph  3 mph  0.00"  91%  82%  52°F  49°F  29.95"
Sat 01:00 AM  55.6°F  55°F  1 mph S  2 mph  5 mph  0.00"  89%  81%  52°F  49°F  29.96"
Sat 12:00 AM  56.3°F  56°F  calm  2 mph  10 mph  0.00"  89%  80%  53°F  50°F  29.97"
Fri 11:00 PM  57.9°F  57°F  calm  2 mph  8 mph  0.00"  88%  79%  54°F  50°F  29.97"
Fri 10:00 PM  58.4°F  58°F  4 mph SW  3 mph  11 mph  0.00"  88%  77%  55°F  51°F  29.97"
Fri 09:00 PM  59.8°F  60°F  6 mph S  4 mph  17 mph  0.00"  84%  75%  55°F  51°F  29.95"
Fri 08:00 PM  62.6°F  62°F  9 mph SW  5 mph  17 mph  0.00"  78%  70%  55°F  52°F  29.91"
Fri 07:00 PM  67.1°F  66°F  7 mph S  6 mph  18 mph  0.00"  69%  63%  56°F  52°F  29.89"
Fri 06:00 PM  72.0°F  69°F  6 mph S  7 mph  23 mph  0.00"  60%  56%  57°F  52°F  29.87"
Fri 05:00 PM  74.0°F  72°F  12 mph S  8 mph  23 mph  0.00"  55%  51%  56°F  52°F  29.86"
Fri 04:00 PM  76.7°F  74°F  11 mph S  8 mph  20 mph  0.00"  51%  47%  57°F  52°F  29.87"
Fri 03:00 PM  78.9°F  75°F  8 mph S  7 mph  15 mph  0.00"  49%  46%  57°F  52°F  29.89"
Fri 02:00 PM  80.6°F  75°F  6 mph S  7 mph  11 mph  0.00"  45%  45%  56°F  52°F  29.90"
Fri 01:00 PM  78.1°F  75°F  5 mph E  6 mph  9 mph  0.00"  48%  44%  56°F  51°F  29.93"
Fri 12:00 PM  73.4°F  74°F  1 mph SW  4 mph  6 mph  0.00"  57%  46%  57°F  51°F  29.96"
Fri 11:00 AM  67.6°F  71°F  2 mph E  4 mph  7 mph  0.00"  67%  52%  56°F  51°F  29.98"
Fri 10:00 AM  60.4°F  67°F  3 mph S  3 mph  6 mph  0.00"  82%  60%  55°F  52°F  30.00"
Fri 09:00 AM  57.1°F  62°F  calm  2 mph  7 mph  0.00"  88%  71%  53°F  52°F  30.01"
Fri 08:00 AM  56.4°F  57°F  1 mph N  2 mph  5 mph  0.00"  90%  80%  53°F  51°F  30.00"
Fri 07:00 AM  55.0°F  54°F  calm  1 mph  5 mph  0.00"  92%  85%  53°F  49°F  29.99"
Fri 06:00 AM  54.4°F  52°F  1 mph SW  1 mph  4 mph  0.00"  93%  86%  52°F  48°F  29.97"
Fri 05:00 AM  54.4°F  53°F  2 mph SW  1 mph  4 mph  0.00"  92%  85%  52°F  48°F  29.96"
Fri 04:00 AM  55.1°F  53°F  1 mph S  1 mph  5 mph  0.00"  92%  84%  53°F  49°F  29.96"
Fri 03:00 AM  55.2°F  54°F  2 mph S  1 mph  9 mph  0.00"  92%  83%  53°F  49°F  29.95"
Fri 02:00 AM  54.8°F  55°F  4 mph S  1 mph  12 mph  0.00"  92%  82%  53°F  49°F  29.95"
Fri 01:00 AM  54.0°F  55°F  4 mph S  2 mph  9 mph  0.00"  89%  81%  51°F  49°F  29.96"

  1. Current weather data. No green row appears if the current weather data is also the high or low for the current day.
  2. High temperature for the current day.
  3. Low temperature for the current day.

The Murrieta weather pages are a service of WeatherCurrents. Murrieta, California is located in the Temecula Valley, in southwestern Riverside County, at the junctions of the Interstate 15 and 215 highways.
Copyright ©Sat May 02 12:35:51 PDT 2026  WeatherCurrents. All rights reserved. - Submit questions and comments - Privacy Policy

This page automatically refreshes every 10 minutes.